sensor_id;sensor_type;location;lat;lon;timestamp;P1;durP1;ratioP1;P2;durP2;ratioP2
3771;SDS011;1901;48.172;12.824;2022-08-01T00:02:22;4.20;;;3.63;;
3771;SDS011;1901;48.172;12.824;2022-08-01T00:04:49;3.40;;;3.13;;
3771;SDS011;1901;48.172;12.824;2022-08-01T00:07:16;5.73;;;3.80;;
3771;SDS011;1901;48.172;12.824;2022-08-01T00:09:43;7.63;;;4.10;;
3771;SDS011;1901;48.172;12.824;2022-08-01T00:12:10;5.87;;;4.80;;
3771;SDS011;1901;48.172;12.824;2022-08-01T00:14:37;4.00;;;3.60;;
3771;SDS011;1901;48.172;12.824;2022-08-01T00:17:04;3.63;;;3.17;;
3771;SDS011;1901;48.172;12.824;2022-08-01T00:19:33;3.87;;;3.57;;
3771;SDS011;1901;48.172;12.824;2022-08-01T00:22:00;3.80;;;3.40;;
3771;SDS011;1901;48.172;12.824;2022-08-01T00:24:27;4.10;;;3.80;;
3771;SDS011;1901;48.172;12.824;2022-08-01T00:26:55;5.43;;;4.00;;
3771;SDS011;1901;48.172;12.824;2022-08-01T00:29:22;6.53;;;3.67;;
3771;SDS011;1901;48.172;12.824;2022-08-01T00:31:49;3.73;;;3.43;;
3771;SDS011;1901;48.172;12.824;2022-08-01T00:34:16;4.43;;;3.30;;
3771;SDS011;1901;48.172;12.824;2022-08-01T00:36:44;6.03;;;3.33;;
3771;SDS011;1901;48.172;12.824;2022-08-01T00:39:12;4.10;;;3.70;;
3771;SDS011;1901;48.172;12.824;2022-08-01T00:41:39;5.40;;;3.23;;
3771;SDS011;1901;48.172;12.824;2022-08-01T00:44:06;5.50;;;4.70;;
3771;SDS011;1901;48.172;12.824;2022-08-01T00:46:33;3.80;;;3.43;;
3771;SDS011;1901;48.172;12.824;2022-08-01T00:49:01;4.10;;;3.70;;
3771;SDS011;1901;48.172;12.824;2022-08-01T00:51:28;4.17;;;3.77;;
3771;SDS011;1901;48.172;12.824;2022-08-01T00:53:57;4.93;;;3.40;;
3771;SDS011;1901;48.172;12.824;2022-08-01T00:56:25;5.93;;;3.67;;
3771;SDS011;1901;48.172;12.824;2022-08-01T00:58:52;6.20;;;3.67;;
3771;SDS011;1901;48.172;12.824;2022-08-01T01:01:19;3.20;;;2.90;;
3771;SDS011;1901;48.172;12.824;2022-08-01T01:03:46;4.00;;;2.80;;
3771;SDS011;1901;48.172;12.824;2022-08-01T01:06:21;4.77;;;3.27;;
3771;SDS011;1901;48.172;12.824;2022-08-01T01:08:52;3.80;;;3.40;;
3771;SDS011;1901;48.172;12.824;2022-08-01T01:11:28;4.30;;;3.90;;
3771;SDS011;1901;48.172;12.824;2022-08-01T01:13:57;4.83;;;4.07;;
3771;SDS011;1901;48.172;12.824;2022-08-01T01:16:26;4.23;;;3.67;;
3771;SDS011;1901;48.172;12.824;2022-08-01T01:18:58;8.23;;;3.97;;
3771;SDS011;1901;48.172;12.824;2022-08-01T01:21:32;5.37;;;3.80;;
3771;SDS011;1901;48.172;12.824;2022-08-01T01:24:03;4.73;;;3.80;;
3771;SDS011;1901;48.172;12.824;2022-08-01T01:26:36;3.87;;;3.47;;
3771;SDS011;1901;48.172;12.824;2022-08-01T01:29:11;4.27;;;3.87;;
3771;SDS011;1901;48.172;12.824;2022-08-01T01:31:42;6.50;;;3.60;;
3771;SDS011;1901;48.172;12.824;2022-08-01T01:34:11;4.17;;;3.87;;
3771;SDS011;1901;48.172;12.824;2022-08-01T01:36:39;5.40;;;4.33;;
3771;SDS011;1901;48.172;12.824;2022-08-01T01:39:06;4.00;;;3.70;;
3771;SDS011;1901;48.172;12.824;2022-08-01T01:41:34;4.70;;;4.00;;
3771;SDS011;1901;48.172;12.824;2022-08-01T01:44:03;4.80;;;4.23;;
3771;SDS011;1901;48.172;12.824;2022-08-01T01:46:32;4.47;;;3.70;;
3771;SDS011;1901;48.172;12.824;2022-08-01T01:49:00;5.00;;;4.50;;
3771;SDS011;1901;48.172;12.824;2022-08-01T01:51:28;4.43;;;4.13;;
3771;SDS011;1901;48.172;12.824;2022-08-01T01:53:56;4.13;;;3.70;;
3771;SDS011;1901;48.172;12.824;2022-08-01T01:56:24;4.10;;;3.80;;
3771;SDS011;1901;48.172;12.824;2022-08-01T01:58:52;4.10;;;3.80;;
3771;SDS011;1901;48.172;12.824;2022-08-01T02:01:20;5.33;;;4.80;;
3771;SDS011;1901;48.172;12.824;2022-08-01T02:03:49;4.77;;;3.80;;
3771;SDS011;1901;48.172;12.824;2022-08-01T02:06:18;5.23;;;4.20;;
3771;SDS011;1901;48.172;12.824;2022-08-01T02:08:46;5.10;;;4.27;;
3771;SDS011;1901;48.172;12.824;2022-08-01T02:11:14;4.27;;;3.97;;
3771;SDS011;1901;48.172;12.824;2022-08-01T02:13:44;5.83;;;5.20;;
3771;SDS011;1901;48.172;12.824;2022-08-01T02:16:13;4.80;;;3.40;;
3771;SDS011;1901;48.172;12.824;2022-08-01T02:18:42;4.70;;;4.20;;
3771;SDS011;1901;48.172;12.824;2022-08-01T02:21:12;4.10;;;3.80;;
3771;SDS011;1901;48.172;12.824;2022-08-01T02:23:40;5.67;;;4.20;;
3771;SDS011;1901;48.172;12.824;2022-08-01T02:26:09;5.50;;;4.57;;
3771;SDS011;1901;48.172;12.824;2022-08-01T02:28:40;4.70;;;4.10;;
3771;SDS011;1901;48.172;12.824;2022-08-01T02:31:10;4.57;;;4.17;;
3771;SDS011;1901;48.172;12.824;2022-08-01T02:33:40;3.83;;;3.53;;
3771;SDS011;1901;48.172;12.824;2022-08-01T02:36:07;4.97;;;4.57;;
3771;SDS011;1901;48.172;12.824;2022-08-01T02:38:37;4.37;;;3.97;;
3771;SDS011;1901;48.172;12.824;2022-08-01T02:41:08;4.67;;;4.20;;
3771;SDS011;1901;48.172;12.824;2022-08-01T02:43:36;5.90;;;4.57;;
3771;SDS011;1901;48.172;12.824;2022-08-01T02:46:04;4.07;;;3.77;;
3771;SDS011;1901;48.172;12.824;2022-08-01T02:48:34;10.73;;;4.60;;
3771;SDS011;1901;48.172;12.824;2022-08-01T02:51:03;4.50;;;4.10;;
3771;SDS011;1901;48.172;12.824;2022-08-01T02:53:31;4.43;;;4.03;;
3771;SDS011;1901;48.172;12.824;2022-08-01T02:56:03;4.37;;;3.97;;
3771;SDS011;1901;48.172;12.824;2022-08-01T02:58:31;5.20;;;4.00;;
3771;SDS011;1901;48.172;12.824;2022-08-01T03:00:58;4.70;;;3.83;;
3771;SDS011;1901;48.172;12.824;2022-08-01T03:03:25;5.70;;;3.77;;
3771;SDS011;1901;48.172;12.824;2022-08-01T03:05:53;4.83;;;4.33;;
3771;SDS011;1901;48.172;12.824;2022-08-01T03:08:20;4.57;;;4.17;;
3771;SDS011;1901;48.172;12.824;2022-08-01T03:10:47;10.10;;;4.40;;
3771;SDS011;1901;48.172;12.824;2022-08-01T03:13:16;4.57;;;3.87;;
3771;SDS011;1901;48.172;12.824;2022-08-01T03:15:44;5.90;;;4.20;;
3771;SDS011;1901;48.172;12.824;2022-08-01T03:18:12;5.90;;;4.30;;
3771;SDS011;1901;48.172;12.824;2022-08-01T03:20:40;5.83;;;5.43;;
3771;SDS011;1901;48.172;12.824;2022-08-01T03:23:08;5.50;;;4.20;;
3771;SDS011;1901;48.172;12.824;2022-08-01T03:25:38;6.07;;;3.83;;
3771;SDS011;1901;48.172;12.824;2022-08-01T03:28:07;5.03;;;4.40;;
3771;SDS011;1901;48.172;12.824;2022-08-01T03:30:36;4.30;;;3.90;;
3771;SDS011;1901;48.172;12.824;2022-08-01T03:33:05;4.77;;;4.37;;
3771;SDS011;1901;48.172;12.824;2022-08-01T03:35:33;5.00;;;4.03;;
3771;SDS011;1901;48.172;12.824;2022-08-01T03:38:01;5.37;;;4.90;;
3771;SDS011;1901;48.172;12.824;2022-08-01T03:40:30;6.30;;;4.03;;
3771;SDS011;1901;48.172;12.824;2022-08-01T03:42:59;5.10;;;4.43;;
3771;SDS011;1901;48.172;12.824;2022-08-01T03:45:30;4.77;;;4.37;;
3771;SDS011;1901;48.172;12.824;2022-08-01T03:47:59;6.53;;;4.30;;
3771;SDS011;1901;48.172;12.824;2022-08-01T03:50:27;8.87;;;5.47;;
3771;SDS011;1901;48.172;12.824;2022-08-01T03:52:57;7.63;;;5.77;;
3771;SDS011;1901;48.172;12.824;2022-08-01T03:55:25;7.13;;;4.90;;
3771;SDS011;1901;48.172;12.824;2022-08-01T03:57:53;9.93;;;5.33;;
3771;SDS011;1901;48.172;12.824;2022-08-01T04:00:20;8.10;;;5.70;;
3771;SDS011;1901;48.172;12.824;2022-08-01T04:02:48;9.73;;;5.40;;
3771;SDS011;1901;48.172;12.824;2022-08-01T04:05:16;6.80;;;5.80;;
3771;SDS011;1901;48.172;12.824;2022-08-01T04:07:45;6.97;;;4.20;;
3771;SDS011;1901;48.172;12.824;2022-08-01T04:10:12;7.60;;;4.30;;
3771;SDS011;1901;48.172;12.824;2022-08-01T04:12:39;4.90;;;4.30;;
3771;SDS011;1901;48.172;12.824;2022-08-01T04:15:08;6.20;;;4.20;;
3771;SDS011;1901;48.172;12.824;2022-08-01T04:17:35;6.63;;;4.10;;
3771;SDS011;1901;48.172;12.824;2022-08-01T04:20:02;6.13;;;4.60;;
3771;SDS011;1901;48.172;12.824;2022-08-01T04:22:30;8.23;;;4.20;;
3771;SDS011;1901;48.172;12.824;2022-08-01T04:24:58;3.87;;;3.53;;
3771;SDS011;1901;48.172;12.824;2022-08-01T04:27:28;3.60;;;3.30;;
3771;SDS011;1901;48.172;12.824;2022-08-01T04:29:56;4.10;;;3.70;;
3771;SDS011;1901;48.172;12.824;2022-08-01T04:32:24;3.30;;;3.00;;
3771;SDS011;1901;48.172;12.824;2022-08-01T04:34:52;4.00;;;3.60;;
3771;SDS011;1901;48.172;12.824;2022-08-01T04:37:20;5.60;;;3.80;;
3771;SDS011;1901;48.172;12.824;2022-08-01T04:39:52;4.00;;;3.60;;
3771;SDS011;1901;48.172;12.824;2022-08-01T04:42:19;6.33;;;4.80;;
3771;SDS011;1901;48.172;12.824;2022-08-01T04:44:46;5.10;;;3.20;;
3771;SDS011;1901;48.172;12.824;2022-08-01T04:47:13;4.83;;;3.90;;
3771;SDS011;1901;48.172;12.824;2022-08-01T04:49:41;4.50;;;4.07;;
3771;SDS011;1901;48.172;12.824;2022-08-01T04:52:08;7.53;;;3.57;;
3771;SDS011;1901;48.172;12.824;2022-08-01T04:54:35;4.23;;;3.90;;
3771;SDS011;1901;48.172;12.824;2022-08-01T04:57:04;7.40;;;4.13;;
3771;SDS011;1901;48.172;12.824;2022-08-01T04:59:32;4.97;;;4.10;;
3771;SDS011;1901;48.172;12.824;2022-08-01T05:02:05;3.60;;;3.30;;
3771;SDS011;1901;48.172;12.824;2022-08-01T05:04:32;5.60;;;3.77;;
3771;SDS011;1901;48.172;12.824;2022-08-01T05:06:59;6.70;;;3.80;;
3771;SDS011;1901;48.172;12.824;2022-08-01T05:09:26;4.33;;;3.93;;
3771;SDS011;1901;48.172;12.824;2022-08-01T05:11:53;4.27;;;3.87;;
3771;SDS011;1901;48.172;12.824;2022-08-01T05:14:24;4.47;;;3.57;;
3771;SDS011;1901;48.172;12.824;2022-08-01T05:16:51;3.67;;;3.37;;
3771;SDS011;1901;48.172;12.824;2022-08-01T05:19:18;3.93;;;3.50;;
3771;SDS011;1901;48.172;12.824;2022-08-01T05:21:46;5.70;;;4.00;;
3771;SDS011;1901;48.172;12.824;2022-08-01T05:24:13;3.67;;;3.33;;
3771;SDS011;1901;48.172;12.824;2022-08-01T05:26:40;4.80;;;4.00;;
3771;SDS011;1901;48.172;12.824;2022-08-01T05:29:07;4.13;;;3.70;;
3771;SDS011;1901;48.172;12.824;2022-08-01T05:31:36;5.70;;;3.23;;
3771;SDS011;1901;48.172;12.824;2022-08-01T05:34:03;4.30;;;3.90;;
3771;SDS011;1901;48.172;12.824;2022-08-01T05:36:30;5.00;;;4.20;;
3771;SDS011;1901;48.172;12.824;2022-08-01T05:38:57;4.20;;;2.83;;
3771;SDS011;1901;48.172;12.824;2022-08-01T05:41:24;4.17;;;3.40;;
3771;SDS011;1901;48.172;12.824;2022-08-01T05:43:52;7.23;;;3.40;;
3771;SDS011;1901;48.172;12.824;2022-08-01T05:46:19;4.07;;;3.73;;
3771;SDS011;1901;48.172;12.824;2022-08-01T05:48:48;3.87;;;3.33;;
3771;SDS011;1901;48.172;12.824;2022-08-01T05:51:15;4.20;;;3.60;;
3771;SDS011;1901;48.172;12.824;2022-08-01T05:53:42;4.33;;;2.90;;
3771;SDS011;1901;48.172;12.824;2022-08-01T05:56:09;4.40;;;2.50;;
3771;SDS011;1901;48.172;12.824;2022-08-01T05:58:36;4.73;;;2.90;;
3771;SDS011;1901;48.172;12.824;2022-08-01T06:01:03;3.63;;;2.80;;
3771;SDS011;1901;48.172;12.824;2022-08-01T06:03:30;2.83;;;2.43;;
3771;SDS011;1901;48.172;12.824;2022-08-01T06:05:59;5.83;;;2.80;;
3771;SDS011;1901;48.172;12.824;2022-08-01T06:08:26;3.27;;;2.97;;
3771;SDS011;1901;48.172;12.824;2022-08-01T06:10:54;2.90;;;2.60;;
3771;SDS011;1901;48.172;12.824;2022-08-01T06:13:21;2.77;;;2.57;;
3771;SDS011;1901;48.172;12.824;2022-08-01T06:15:48;3.00;;;2.73;;
3771;SDS011;1901;48.172;12.824;2022-08-01T06:18:15;3.23;;;2.93;;
3771;SDS011;1901;48.172;12.824;2022-08-01T06:20:43;3.60;;;3.30;;
3771;SDS011;1901;48.172;12.824;2022-08-01T06:23:11;4.00;;;2.70;;
3771;SDS011;1901;48.172;12.824;2022-08-01T06:25:40;3.00;;;2.43;;
3771;SDS011;1901;48.172;12.824;2022-08-01T06:28:07;9.93;;;2.67;;
3771;SDS011;1901;48.172;12.824;2022-08-01T06:30:34;4.17;;;2.83;;
3771;SDS011;1901;48.172;12.824;2022-08-01T06:33:01;3.63;;;2.40;;
3771;SDS011;1901;48.172;12.824;2022-08-01T06:35:29;2.67;;;2.47;;
3771;SDS011;1901;48.172;12.824;2022-08-01T06:37:56;2.43;;;2.10;;
3771;SDS011;1901;48.172;12.824;2022-08-01T06:40:25;3.50;;;2.07;;
3771;SDS011;1901;48.172;12.824;2022-08-01T06:42:52;2.57;;;2.37;;
3771;SDS011;1901;48.172;12.824;2022-08-01T06:45:19;3.57;;;3.27;;
3771;SDS011;1901;48.172;12.824;2022-08-01T06:47:47;3.83;;;2.43;;
3771;SDS011;1901;48.172;12.824;2022-08-01T06:50:14;3.60;;;2.60;;
3771;SDS011;1901;48.172;12.824;2022-08-01T06:52:42;3.03;;;2.73;;
3771;SDS011;1901;48.172;12.824;2022-08-01T06:55:09;2.87;;;2.67;;
3771;SDS011;1901;48.172;12.824;2022-08-01T06:57:42;2.60;;;2.40;;
3771;SDS011;1901;48.172;12.824;2022-08-01T07:00:11;3.10;;;2.70;;
3771;SDS011;1901;48.172;12.824;2022-08-01T07:02:38;2.93;;;2.73;;
3771;SDS011;1901;48.172;12.824;2022-08-01T07:05:06;4.73;;;2.40;;
3771;SDS011;1901;48.172;12.824;2022-08-01T07:07:34;5.23;;;2.73;;
3771;SDS011;1901;48.172;12.824;2022-08-01T07:10:01;4.77;;;2.70;;
3771;SDS011;1901;48.172;12.824;2022-08-01T07:12:28;2.13;;;1.90;;
3771;SDS011;1901;48.172;12.824;2022-08-01T07:14:57;2.63;;;2.40;;
3771;SDS011;1901;48.172;12.824;2022-08-01T07:17:24;3.93;;;2.57;;
3771;SDS011;1901;48.172;12.824;2022-08-01T07:19:51;3.43;;;2.43;;
3771;SDS011;1901;48.172;12.824;2022-08-01T07:22:19;5.97;;;2.40;;
3771;SDS011;1901;48.172;12.824;2022-08-01T07:24:46;5.50;;;2.70;;
3771;SDS011;1901;48.172;12.824;2022-08-01T07:27:14;2.80;;;2.60;;
3771;SDS011;1901;48.172;12.824;2022-08-01T07:29:42;5.07;;;4.40;;
3771;SDS011;1901;48.172;12.824;2022-08-01T07:32:10;3.53;;;2.43;;
3771;SDS011;1901;48.172;12.824;2022-08-01T07:34:37;5.63;;;2.67;;
3771;SDS011;1901;48.172;12.824;2022-08-01T07:37:04;2.90;;;2.70;;
3771;SDS011;1901;48.172;12.824;2022-08-01T07:39:31;3.23;;;2.70;;
3771;SDS011;1901;48.172;12.824;2022-08-01T07:41:59;3.80;;;2.90;;
3771;SDS011;1901;48.172;12.824;2022-08-01T07:44:26;3.13;;;2.50;;
3771;SDS011;1901;48.172;12.824;2022-08-01T07:46:53;3.57;;;2.70;;
3771;SDS011;1901;48.172;12.824;2022-08-01T07:49:21;3.90;;;2.77;;
3771;SDS011;1901;48.172;12.824;2022-08-01T07:51:49;6.47;;;4.67;;
3771;SDS011;1901;48.172;12.824;2022-08-01T07:54:16;2.80;;;2.60;;
3771;SDS011;1901;48.172;12.824;2022-08-01T07:56:43;2.80;;;2.60;;
3771;SDS011;1901;48.172;12.824;2022-08-01T07:59:10;2.73;;;2.43;;
3771;SDS011;1901;48.172;12.824;2022-08-01T08:01:37;4.23;;;2.43;;
3771;SDS011;1901;48.172;12.824;2022-08-01T08:04:04;2.50;;;2.30;;
3771;SDS011;1901;48.172;12.824;2022-08-01T08:06:33;3.20;;;2.30;;
3771;SDS011;1901;48.172;12.824;2022-08-01T08:09:00;2.23;;;2.03;;
3771;SDS011;1901;48.172;12.824;2022-08-01T08:11:27;3.03;;;2.50;;
3771;SDS011;1901;48.172;12.824;2022-08-01T08:13:54;2.83;;;2.20;;
3771;SDS011;1901;48.172;12.824;2022-08-01T08:16:21;4.43;;;2.70;;
3771;SDS011;1901;48.172;12.824;2022-08-01T08:18:48;2.00;;;1.90;;
3771;SDS011;1901;48.172;12.824;2022-08-01T08:21:15;3.23;;;2.37;;
3771;SDS011;1901;48.172;12.824;2022-08-01T08:23:44;4.33;;;3.20;;
3771;SDS011;1901;48.172;12.824;2022-08-01T08:26:29;3.47;;;2.77;;
3771;SDS011;1901;48.172;12.824;2022-08-01T08:28:56;5.07;;;2.60;;
3771;SDS011;1901;48.172;12.824;2022-08-01T08:31:23;3.07;;;2.37;;
3771;SDS011;1901;48.172;12.824;2022-08-01T08:33:50;4.40;;;2.87;;
3771;SDS011;1901;48.172;12.824;2022-08-01T08:36:17;3.90;;;3.33;;
3771;SDS011;1901;48.172;12.824;2022-08-01T08:38:46;3.27;;;2.97;;
3771;SDS011;1901;48.172;12.824;2022-08-01T08:41:13;3.20;;;2.87;;
3771;SDS011;1901;48.172;12.824;2022-08-01T08:43:40;4.60;;;2.40;;
3771;SDS011;1901;48.172;12.824;2022-08-01T08:46:08;4.30;;;2.73;;
3771;SDS011;1901;48.172;12.824;2022-08-01T08:48:35;3.37;;;2.53;;
3771;SDS011;1901;48.172;12.824;2022-08-01T08:51:03;3.07;;;2.73;;
3771;SDS011;1901;48.172;12.824;2022-08-01T08:53:30;4.33;;;2.40;;
3771;SDS011;1901;48.172;12.824;2022-08-01T08:55:59;3.73;;;2.37;;
3771;SDS011;1901;48.172;12.824;2022-08-01T08:58:26;3.90;;;2.43;;
3771;SDS011;1901;48.172;12.824;2022-08-01T09:00:54;3.57;;;3.00;;
3771;SDS011;1901;48.172;12.824;2022-08-01T09:03:21;3.23;;;2.60;;
3771;SDS011;1901;48.172;12.824;2022-08-01T09:05:48;4.87;;;3.03;;
3771;SDS011;1901;48.172;12.824;2022-08-01T09:08:15;3.60;;;3.30;;
3771;SDS011;1901;48.172;12.824;2022-08-01T09:10:42;3.13;;;2.87;;
3771;SDS011;1901;48.172;12.824;2022-08-01T09:13:12;2.60;;;2.40;;
3771;SDS011;1901;48.172;12.824;2022-08-01T09:15:40;4.33;;;2.30;;
3771;SDS011;1901;48.172;12.824;2022-08-01T09:18:08;2.70;;;2.10;;
3771;SDS011;1901;48.172;12.824;2022-08-01T09:20:35;3.53;;;2.50;;
3771;SDS011;1901;48.172;12.824;2022-08-01T09:23:02;3.40;;;2.20;;
3771;SDS011;1901;48.172;12.824;2022-08-01T09:25:29;5.13;;;2.40;;
3771;SDS011;1901;48.172;12.824;2022-08-01T09:28:02;3.40;;;2.50;;
3771;SDS011;1901;48.172;12.824;2022-08-01T09:30:32;2.90;;;2.10;;
3771;SDS011;1901;48.172;12.824;2022-08-01T09:33:03;3.40;;;2.47;;
3771;SDS011;1901;48.172;12.824;2022-08-01T09:35:31;3.50;;;2.27;;
3771;SDS011;1901;48.172;12.824;2022-08-01T09:38:16;3.47;;;2.40;;
3771;SDS011;1901;48.172;12.824;2022-08-01T09:40:44;2.73;;;2.23;;
3771;SDS011;1901;48.172;12.824;2022-08-01T09:43:11;2.67;;;2.40;;
3771;SDS011;1901;48.172;12.824;2022-08-01T09:45:40;2.40;;;2.20;;
3771;SDS011;1901;48.172;12.824;2022-08-01T09:48:07;2.80;;;2.60;;
3771;SDS011;1901;48.172;12.824;2022-08-01T09:50:38;5.77;;;2.60;;
3771;SDS011;1901;48.172;12.824;2022-08-01T09:53:06;2.73;;;2.53;;
3771;SDS011;1901;48.172;12.824;2022-08-01T09:55:34;4.20;;;2.70;;
3771;SDS011;1901;48.172;12.824;2022-08-01T09:58:01;4.03;;;2.10;;
3771;SDS011;1901;48.172;12.824;2022-08-01T10:00:29;3.97;;;3.57;;
3771;SDS011;1901;48.172;12.824;2022-08-01T10:02:58;3.47;;;2.73;;
3771;SDS011;1901;48.172;12.824;2022-08-01T10:05:31;3.10;;;2.80;;
3771;SDS011;1901;48.172;12.824;2022-08-01T10:07:59;4.20;;;2.40;;
3771;SDS011;1901;48.172;12.824;2022-08-01T10:10:27;2.53;;;2.33;;
3771;SDS011;1901;48.172;12.824;2022-08-01T10:12:54;3.10;;;2.30;;
3771;SDS011;1901;48.172;12.824;2022-08-01T10:15:22;5.90;;;3.73;;
3771;SDS011;1901;48.172;12.824;2022-08-01T10:17:53;3.30;;;2.50;;
3771;SDS011;1901;48.172;12.824;2022-08-01T10:20:22;2.83;;;2.30;;
3771;SDS011;1901;48.172;12.824;2022-08-01T10:22:50;3.70;;;1.97;;
3771;SDS011;1901;48.172;12.824;2022-08-01T10:25:18;4.43;;;2.00;;
3771;SDS011;1901;48.172;12.824;2022-08-01T10:27:47;2.80;;;2.13;;
3771;SDS011;1901;48.172;12.824;2022-08-01T10:30:15;2.47;;;2.27;;
3771;SDS011;1901;48.172;12.824;2022-08-01T10:32:42;3.10;;;2.00;;
3771;SDS011;1901;48.172;12.824;2022-08-01T10:35:13;4.13;;;2.10;;
3771;SDS011;1901;48.172;12.824;2022-08-01T10:37:44;2.20;;;2.00;;
3771;SDS011;1901;48.172;12.824;2022-08-01T10:40:12;2.73;;;2.20;;
3771;SDS011;1901;48.172;12.824;2022-08-01T10:42:39;4.40;;;2.20;;
3771;SDS011;1901;48.172;12.824;2022-08-01T10:45:07;2.23;;;2.03;;
3771;SDS011;1901;48.172;12.824;2022-08-01T10:47:37;2.80;;;2.60;;
3771;SDS011;1901;48.172;12.824;2022-08-01T10:50:07;2.30;;;2.10;;
3771;SDS011;1901;48.172;12.824;2022-08-01T10:52:38;3.30;;;2.23;;
3771;SDS011;1901;48.172;12.824;2022-08-01T10:55:07;3.33;;;2.20;;
3771;SDS011;1901;48.172;12.824;2022-08-01T10:57:41;2.87;;;2.27;;
3771;SDS011;1901;48.172;12.824;2022-08-01T11:00:10;2.77;;;2.20;;
3771;SDS011;1901;48.172;12.824;2022-08-01T11:02:43;2.50;;;2.10;;
3771;SDS011;1901;48.172;12.824;2022-08-01T11:05:23;2.20;;;2.00;;
3771;SDS011;1901;48.172;12.824;2022-08-01T11:07:51;2.70;;;2.30;;
3771;SDS011;1901;48.172;12.824;2022-08-01T11:10:22;3.13;;;2.43;;
3771;SDS011;1901;48.172;12.824;2022-08-01T11:12:51;2.20;;;2.00;;
3771;SDS011;1901;48.172;12.824;2022-08-01T11:15:19;2.33;;;2.13;;
3771;SDS011;1901;48.172;12.824;2022-08-01T11:17:56;2.50;;;2.13;;
3771;SDS011;1901;48.172;12.824;2022-08-01T11:20:24;2.40;;;2.10;;
3771;SDS011;1901;48.172;12.824;2022-08-01T11:31:30;5.83;;;2.67;;
3771;SDS011;1901;48.172;12.824;2022-08-01T11:33:58;3.10;;;2.40;;
3771;SDS011;1901;48.172;12.824;2022-08-01T11:36:25;3.13;;;2.03;;
3771;SDS011;1901;48.172;12.824;2022-08-01T11:39:11;2.93;;;1.90;;
3771;SDS011;1901;48.172;12.824;2022-08-01T11:41:39;2.00;;;1.80;;
3771;SDS011;1901;48.172;12.824;2022-08-01T11:44:07;3.87;;;2.63;;
3771;SDS011;1901;48.172;12.824;2022-08-01T11:46:46;3.00;;;1.90;;
3771;SDS011;1901;48.172;12.824;2022-08-01T11:52:16;2.40;;;2.20;;
3771;SDS011;1901;48.172;12.824;2022-08-01T11:54:44;2.70;;;1.80;;
3771;SDS011;1901;48.172;12.824;2022-08-01T11:57:12;5.07;;;2.20;;
3771;SDS011;1901;48.172;12.824;2022-08-01T11:59:40;5.37;;;2.50;;
3771;SDS011;1901;48.172;12.824;2022-08-01T12:02:22;2.70;;;2.50;;
3771;SDS011;1901;48.172;12.824;2022-08-01T12:04:51;3.20;;;2.83;;
3771;SDS011;1901;48.172;12.824;2022-08-01T12:07:19;4.40;;;2.50;;
3771;SDS011;1901;48.172;12.824;2022-08-01T12:09:46;2.37;;;2.17;;
3771;SDS011;1901;48.172;12.824;2022-08-01T12:12:17;2.50;;;2.10;;
3771;SDS011;1901;48.172;12.824;2022-08-01T12:14:44;2.50;;;2.30;;
3771;SDS011;1901;48.172;12.824;2022-08-01T12:17:11;4.63;;;1.90;;
3771;SDS011;1901;48.172;12.824;2022-08-01T12:19:41;2.10;;;1.90;;
3771;SDS011;1901;48.172;12.824;2022-08-01T12:22:09;2.60;;;2.40;;
3771;SDS011;1901;48.172;12.824;2022-08-01T12:24:37;3.33;;;2.70;;
3771;SDS011;1901;48.172;12.824;2022-08-01T12:27:05;3.63;;;2.13;;
3771;SDS011;1901;48.172;12.824;2022-08-01T12:29:33;2.43;;;2.23;;
3771;SDS011;1901;48.172;12.824;2022-08-01T12:32:00;3.53;;;2.27;;
3771;SDS011;1901;48.172;12.824;2022-08-01T12:34:28;4.63;;;2.20;;
3771;SDS011;1901;48.172;12.824;2022-08-01T12:36:57;3.40;;;2.37;;
3771;SDS011;1901;48.172;12.824;2022-08-01T12:39:32;3.40;;;2.30;;
3771;SDS011;1901;48.172;12.824;2022-08-01T12:41:59;2.30;;;2.00;;
3771;SDS011;1901;48.172;12.824;2022-08-01T12:44:26;2.40;;;2.20;;
3771;SDS011;1901;48.172;12.824;2022-08-01T12:46:54;2.30;;;1.90;;
3771;SDS011;1901;48.172;12.824;2022-08-01T12:49:21;2.97;;;2.13;;
3771;SDS011;1901;48.172;12.824;2022-08-01T12:51:49;6.40;;;2.73;;
3771;SDS011;1901;48.172;12.824;2022-08-01T12:54:18;3.17;;;2.00;;
3771;SDS011;1901;48.172;12.824;2022-08-01T12:56:45;2.20;;;2.00;;
3771;SDS011;1901;48.172;12.824;2022-08-01T12:59:22;3.40;;;1.90;;
3771;SDS011;1901;48.172;12.824;2022-08-01T13:01:50;2.00;;;1.80;;
3771;SDS011;1901;48.172;12.824;2022-08-01T13:04:17;2.40;;;2.10;;
3771;SDS011;1901;48.172;12.824;2022-08-01T13:06:44;2.47;;;1.80;;
3771;SDS011;1901;48.172;12.824;2022-08-01T13:09:12;3.37;;;2.20;;
3771;SDS011;1901;48.172;12.824;2022-08-01T13:11:40;2.67;;;1.83;;
3771;SDS011;1901;48.172;12.824;2022-08-01T13:14:08;5.00;;;2.30;;
3771;SDS011;1901;48.172;12.824;2022-08-01T13:16:45;2.20;;;1.90;;
3771;SDS011;1901;48.172;12.824;2022-08-01T13:19:12;2.20;;;1.90;;
3771;SDS011;1901;48.172;12.824;2022-08-01T13:21:42;3.10;;;1.87;;
3771;SDS011;1901;48.172;12.824;2022-08-01T13:24:22;2.40;;;2.00;;
3771;SDS011;1901;48.172;12.824;2022-08-01T13:26:51;2.40;;;2.17;;
3771;SDS011;1901;48.172;12.824;2022-08-01T13:29:21;3.67;;;1.67;;
3771;SDS011;1901;48.172;12.824;2022-08-01T13:31:48;2.10;;;1.83;;
3771;SDS011;1901;48.172;12.824;2022-08-01T13:34:16;3.47;;;2.33;;
3771;SDS011;1901;48.172;12.824;2022-08-01T13:36:43;2.67;;;2.43;;
3771;SDS011;1901;48.172;12.824;2022-08-01T13:39:11;2.70;;;2.50;;
3771;SDS011;1901;48.172;12.824;2022-08-01T13:41:57;7.70;;;2.40;;
3771;SDS011;1901;48.172;12.824;2022-08-01T13:44:24;8.80;;;2.07;;
3771;SDS011;1901;48.172;12.824;2022-08-01T13:46:51;4.13;;;2.43;;
3771;SDS011;1901;48.172;12.824;2022-08-01T13:49:18;5.47;;;1.67;;
3771;SDS011;1901;48.172;12.824;2022-08-01T13:51:45;5.50;;;1.97;;
3771;SDS011;1901;48.172;12.824;2022-08-01T13:54:14;4.07;;;2.30;;
3771;SDS011;1901;48.172;12.824;2022-08-01T13:56:42;4.83;;;2.07;;
3771;SDS011;1901;48.172;12.824;2022-08-01T13:59:10;2.60;;;1.87;;
3771;SDS011;1901;48.172;12.824;2022-08-01T14:07:44;2.30;;;1.67;;
3771;SDS011;1901;48.172;12.824;2022-08-01T14:10:11;6.07;;;2.40;;
3771;SDS011;1901;48.172;12.824;2022-08-01T14:12:39;3.40;;;2.00;;
3771;SDS011;1901;48.172;12.824;2022-08-01T14:15:08;4.00;;;1.80;;
3771;SDS011;1901;48.172;12.824;2022-08-01T14:17:35;2.03;;;1.83;;
3771;SDS011;1901;48.172;12.824;2022-08-01T14:20:03;2.43;;;2.23;;
3771;SDS011;1901;48.172;12.824;2022-08-01T14:22:30;5.73;;;2.17;;
3771;SDS011;1901;48.172;12.824;2022-08-01T14:24:57;3.20;;;1.80;;
3771;SDS011;1901;48.172;12.824;2022-08-01T14:27:25;1.90;;;1.60;;
3771;SDS011;1901;48.172;12.824;2022-08-01T14:29:55;2.17;;;1.73;;
3771;SDS011;1901;48.172;12.824;2022-08-01T14:32:23;1.77;;;1.67;;
3771;SDS011;1901;48.172;12.824;2022-08-01T14:34:50;2.37;;;1.77;;
3771;SDS011;1901;48.172;12.824;2022-08-01T14:37:17;2.30;;;1.97;;
3771;SDS011;1901;48.172;12.824;2022-08-01T14:39:44;2.43;;;1.80;;
3771;SDS011;1901;48.172;12.824;2022-08-01T14:42:12;3.47;;;2.10;;
3771;SDS011;1901;48.172;12.824;2022-08-01T14:44:39;1.80;;;1.70;;
3771;SDS011;1901;48.172;12.824;2022-08-01T14:47:06;2.10;;;1.50;;
3771;SDS011;1901;48.172;12.824;2022-08-01T14:49:34;6.43;;;2.20;;
3771;SDS011;1901;48.172;12.824;2022-08-01T14:52:01;10.17;;;6.50;;
3771;SDS011;1901;48.172;12.824;2022-08-01T14:54:28;6.87;;;2.60;;
3771;SDS011;1901;48.172;12.824;2022-08-01T14:56:55;3.73;;;1.97;;
3771;SDS011;1901;48.172;12.824;2022-08-01T14:59:23;3.70;;;1.93;;
3771;SDS011;1901;48.172;12.824;2022-08-01T15:01:50;2.83;;;2.03;;
3771;SDS011;1901;48.172;12.824;2022-08-01T15:04:17;7.10;;;2.30;;
3771;SDS011;1901;48.172;12.824;2022-08-01T15:06:46;1.87;;;1.67;;
3771;SDS011;1901;48.172;12.824;2022-08-01T15:09:13;2.20;;;2.00;;
3771;SDS011;1901;48.172;12.824;2022-08-01T15:11:40;4.10;;;1.90;;
3771;SDS011;1901;48.172;12.824;2022-08-01T15:14:07;2.80;;;1.70;;
3771;SDS011;1901;48.172;12.824;2022-08-01T15:16:52;4.17;;;3.13;;
3771;SDS011;1901;48.172;12.824;2022-08-01T15:19:19;2.37;;;1.80;;
3771;SDS011;1901;48.172;12.824;2022-08-01T15:21:47;1.53;;;1.43;;
3771;SDS011;1901;48.172;12.824;2022-08-01T15:24:14;2.17;;;1.90;;
3771;SDS011;1901;48.172;12.824;2022-08-01T15:26:41;1.70;;;1.50;;